sensor_id;sensor_type;location;lat;lon;timestamp;pressure;altitude;pressure_sealevel;temperature;humidity
60355;BME280;46198;51.464;-0.066;2023-02-19T00:01:58;102131.63;;;9.67;100.00
60355;BME280;46198;51.464;-0.066;2023-02-19T00:04:25;102139.09;;;9.65;100.00
60355;BME280;46198;51.464;-0.066;2023-02-19T00:06:54;102135.53;;;9.65;100.00
60355;BME280;46198;51.464;-0.066;2023-02-19T00:09:22;102145.06;;;9.61;100.00
60355;BME280;46198;51.464;-0.066;2023-02-19T00:11:51;102148.34;;;9.56;100.00
60355;BME280;46198;51.464;-0.066;2023-02-19T00:14:20;102147.66;;;9.54;100.00
60355;BME280;46198;51.464;-0.066;2023-02-19T00:16:48;102146.63;;;9.55;100.00
60355;BME280;46198;51.464;-0.066;2023-02-19T00:19:18;102151.56;;;9.51;100.00
60355;BME280;46198;51.464;-0.066;2023-02-19T00:21:47;102141.56;;;9.52;100.00
60355;BME280;46198;51.464;-0.066;2023-02-19T00:24:15;102140.63;;;9.45;100.00
60355;BME280;46198;51.464;-0.066;2023-02-19T00:26:44;102154.50;;;9.50;100.00
60355;BME280;46198;51.464;-0.066;2023-02-19T00:29:15;102158.56;;;9.46;100.00
60355;BME280;46198;51.464;-0.066;2023-02-19T00:31:44;102167.38;;;9.48;100.00
60355;BME280;46198;51.464;-0.066;2023-02-19T00:34:13;102167.97;;;9.58;100.00
60355;BME280;46198;51.464;-0.066;2023-02-19T00:36:42;102175.50;;;9.48;100.00
60355;BME280;46198;51.464;-0.066;2023-02-19T00:39:13;102175.56;;;9.40;100.00
60355;BME280;46198;51.464;-0.066;2023-02-19T00:41:42;102174.00;;;9.45;100.00
60355;BME280;46198;51.464;-0.066;2023-02-19T00:44:11;102190.63;;;9.42;100.00
60355;BME280;46198;51.464;-0.066;2023-02-19T00:46:42;102180.97;;;9.40;100.00
60355;BME280;46198;51.464;-0.066;2023-02-19T00:49:15;102181.66;;;9.33;100.00
60355;BME280;46198;51.464;-0.066;2023-02-19T00:51:44;102176.94;;;9.36;100.00
60355;BME280;46198;51.464;-0.066;2023-02-19T00:54:13;102185.94;;;9.28;100.00
60355;BME280;46198;51.464;-0.066;2023-02-19T00:56:41;102188.31;;;9.31;100.00
60355;BME280;46198;51.464;-0.066;2023-02-19T00:59:10;102198.19;;;9.24;100.00
60355;BME280;46198;51.464;-0.066;2023-02-19T01:01:38;102197.66;;;9.28;100.00
60355;BME280;46198;51.464;-0.066;2023-02-19T01:04:07;102203.59;;;9.24;100.00
60355;BME280;46198;51.464;-0.066;2023-02-19T01:06:36;102201.41;;;9.19;100.00
60355;BME280;46198;51.464;-0.066;2023-02-19T01:09:04;102200.75;;;9.17;100.00
60355;BME280;46198;51.464;-0.066;2023-02-19T01:11:33;102206.97;;;9.26;100.00
60355;BME280;46198;51.464;-0.066;2023-02-19T01:14:01;102208.03;;;9.17;100.00
60355;BME280;46198;51.464;-0.066;2023-02-19T01:16:31;102211.06;;;9.22;100.00
60355;BME280;46198;51.464;-0.066;2023-02-19T01:18:59;102218.19;;;9.23;100.00
60355;BME280;46198;51.464;-0.066;2023-02-19T01:21:29;102217.31;;;9.22;100.00
60355;BME280;46198;51.464;-0.066;2023-02-19T01:23:57;102209.84;;;9.24;100.00
60355;BME280;46198;51.464;-0.066;2023-02-19T01:26:28;102213.25;;;9.26;100.00
60355;BME280;46198;51.464;-0.066;2023-02-19T01:28:57;102219.34;;;9.28;100.00
60355;BME280;46198;51.464;-0.066;2023-02-19T01:31:26;102224.09;;;9.26;100.00
60355;BME280;46198;51.464;-0.066;2023-02-19T01:33:57;102229.25;;;9.36;100.00
60355;BME280;46198;51.464;-0.066;2023-02-19T01:36:26;102223.00;;;9.36;100.00
60355;BME280;46198;51.464;-0.066;2023-02-19T01:39:00;102221.31;;;9.35;100.00
60355;BME280;46198;51.464;-0.066;2023-02-19T01:41:31;102230.78;;;9.39;100.00
60355;BME280;46198;51.464;-0.066;2023-02-19T01:44:02;102230.13;;;9.37;100.00
60355;BME280;46198;51.464;-0.066;2023-02-19T01:46:32;102221.44;;;9.41;100.00
60355;BME280;46198;51.464;-0.066;2023-02-19T01:49:03;102223.84;;;9.36;100.00
60355;BME280;46198;51.464;-0.066;2023-02-19T01:51:34;102232.19;;;9.35;100.00
60355;BME280;46198;51.464;-0.066;2023-02-19T01:54:06;102233.50;;;9.39;100.00
60355;BME280;46198;51.464;-0.066;2023-02-19T01:56:37;102242.66;;;9.38;100.00
60355;BME280;46198;51.464;-0.066;2023-02-19T01:59:07;102238.31;;;9.28;100.00
60355;BME280;46198;51.464;-0.066;2023-02-19T02:01:37;102229.97;;;9.30;100.00
60355;BME280;46198;51.464;-0.066;2023-02-19T02:04:07;102233.94;;;9.19;100.00
60355;BME280;46198;51.464;-0.066;2023-02-19T02:06:41;102230.53;;;9.17;100.00
60355;BME280;46198;51.464;-0.066;2023-02-19T02:09:13;102240.19;;;9.20;100.00
60355;BME280;46198;51.464;-0.066;2023-02-19T02:11:58;102230.91;;;9.14;100.00
60355;BME280;46198;51.464;-0.066;2023-02-19T02:14:29;102248.19;;;9.13;100.00
60355;BME280;46198;51.464;-0.066;2023-02-19T02:17:04;102237.88;;;9.08;100.00
60355;BME280;46198;51.464;-0.066;2023-02-19T02:20:08;102232.66;;;9.07;100.00
60355;BME280;46198;51.464;-0.066;2023-02-19T02:22:48;102245.50;;;9.05;100.00
60355;BME280;46198;51.464;-0.066;2023-02-19T02:25:32;102241.28;;;9.02;100.00
60355;BME280;46198;51.464;-0.066;2023-02-19T02:28:22;102243.50;;;8.99;100.00
60355;BME280;46198;51.464;-0.066;2023-02-19T02:31:03;102253.66;;;9.05;100.00
60355;BME280;46198;51.464;-0.066;2023-02-19T02:33:35;102253.84;;;8.95;100.00
60355;BME280;46198;51.464;-0.066;2023-02-19T02:36:07;102252.03;;;8.87;100.00
60355;BME280;46198;51.464;-0.066;2023-02-19T02:38:41;102246.59;;;8.87;100.00
60355;BME280;46198;51.464;-0.066;2023-02-19T02:41:10;102249.97;;;8.81;100.00
60355;BME280;46198;51.464;-0.066;2023-02-19T02:43:39;102254.06;;;8.85;100.00
60355;BME280;46198;51.464;-0.066;2023-02-19T02:46:11;102250.81;;;8.82;100.00
60355;BME280;46198;51.464;-0.066;2023-02-19T02:48:42;102247.84;;;8.69;100.00
60355;BME280;46198;51.464;-0.066;2023-02-19T02:51:16;102261.19;;;8.70;100.00
60355;BME280;46198;51.464;-0.066;2023-02-19T02:53:56;102260.16;;;8.63;100.00
60355;BME280;46198;51.464;-0.066;2023-02-19T02:56:44;102261.53;;;8.67;100.00
60355;BME280;46198;51.464;-0.066;2023-02-19T02:59:15;102274.38;;;8.65;100.00
60355;BME280;46198;51.464;-0.066;2023-02-19T03:01:49;102270.50;;;8.59;100.00
60355;BME280;46198;51.464;-0.066;2023-02-19T03:04:44;102273.41;;;8.66;100.00
60355;BME280;46198;51.464;-0.066;2023-02-19T03:07:36;102274.59;;;8.55;100.00
60355;BME280;46198;51.464;-0.066;2023-02-19T03:10:08;102278.97;;;8.64;100.00
60355;BME280;46198;51.464;-0.066;2023-02-19T03:12:39;102276.13;;;8.58;100.00
60355;BME280;46198;51.464;-0.066;2023-02-19T03:15:27;102274.06;;;8.52;100.00
60355;BME280;46198;51.464;-0.066;2023-02-19T03:18:18;102285.91;;;8.59;100.00
60355;BME280;46198;51.464;-0.066;2023-02-19T03:21:06;102279.81;;;8.57;100.00
60355;BME280;46198;51.464;-0.066;2023-02-19T03:23:37;102277.78;;;8.67;100.00
60355;BME280;46198;51.464;-0.066;2023-02-19T03:26:25;102277.47;;;8.54;100.00
60355;BME280;46198;51.464;-0.066;2023-02-19T03:28:54;102285.56;;;8.62;100.00
60355;BME280;46198;51.464;-0.066;2023-02-19T03:31:43;102289.31;;;8.61;100.00
60355;BME280;46198;51.464;-0.066;2023-02-19T03:34:15;102290.28;;;8.68;100.00
60355;BME280;46198;51.464;-0.066;2023-02-19T03:36:52;102292.34;;;8.66;100.00
60355;BME280;46198;51.464;-0.066;2023-02-19T03:39:23;102288.25;;;8.70;100.00
60355;BME280;46198;51.464;-0.066;2023-02-19T03:41:57;102284.88;;;8.60;100.00
60355;BME280;46198;51.464;-0.066;2023-02-19T03:44:34;102295.56;;;8.61;100.00
60355;BME280;46198;51.464;-0.066;2023-02-19T03:47:11;102301.31;;;8.58;100.00
60355;BME280;46198;51.464;-0.066;2023-02-19T03:49:46;102311.47;;;8.48;100.00
60355;BME280;46198;51.464;-0.066;2023-02-19T03:52:23;102306.22;;;8.55;100.00
60355;BME280;46198;51.464;-0.066;2023-02-19T03:54:57;102311.63;;;8.47;100.00
60355;BME280;46198;51.464;-0.066;2023-02-19T03:57:36;102315.72;;;8.42;100.00
60355;BME280;46198;51.464;-0.066;2023-02-19T04:00:10;102317.91;;;8.39;100.00
60355;BME280;46198;51.464;-0.066;2023-02-19T04:02:46;102320.09;;;8.43;100.00
60355;BME280;46198;51.464;-0.066;2023-02-19T04:05:18;102330.28;;;8.41;100.00
60355;BME280;46198;51.464;-0.066;2023-02-19T04:07:49;102327.84;;;8.38;100.00
60355;BME280;46198;51.464;-0.066;2023-02-19T04:10:23;102332.75;;;8.35;100.00
60355;BME280;46198;51.464;-0.066;2023-02-19T04:12:58;102345.25;;;8.36;100.00
60355;BME280;46198;51.464;-0.066;2023-02-19T04:15:30;102333.59;;;8.35;100.00
60355;BME280;46198;51.464;-0.066;2023-02-19T04:18:01;102343.06;;;8.31;100.00
60355;BME280;46198;51.464;-0.066;2023-02-19T04:20:35;102353.56;;;8.34;100.00
60355;BME280;46198;51.464;-0.066;2023-02-19T04:23:05;102348.66;;;8.30;100.00
60355;BME280;46198;51.464;-0.066;2023-02-19T04:25:34;102348.50;;;8.31;100.00
60355;BME280;46198;51.464;-0.066;2023-02-19T04:28:06;102364.19;;;8.36;100.00
60355;BME280;46198;51.464;-0.066;2023-02-19T04:30:34;102373.84;;;8.30;100.00
60355;BME280;46198;51.464;-0.066;2023-02-19T04:33:02;102371.47;;;8.35;100.00
60355;BME280;46198;51.464;-0.066;2023-02-19T04:35:30;102380.97;;;8.31;100.00
60355;BME280;46198;51.464;-0.066;2023-02-19T04:38:00;102390.94;;;8.31;100.00
60355;BME280;46198;51.464;-0.066;2023-02-19T04:40:28;102379.78;;;8.34;100.00
60355;BME280;46198;51.464;-0.066;2023-02-19T04:42:56;102403.97;;;8.35;100.00
60355;BME280;46198;51.464;-0.066;2023-02-19T04:45:24;102392.53;;;8.41;100.00
60355;BME280;46198;51.464;-0.066;2023-02-19T04:47:52;102398.88;;;8.32;100.00
60355;BME280;46198;51.464;-0.066;2023-02-19T04:50:20;102403.31;;;8.33;100.00
60355;BME280;46198;51.464;-0.066;2023-02-19T04:52:48;102413.31;;;8.41;100.00
60355;BME280;46198;51.464;-0.066;2023-02-19T04:55:18;102410.22;;;8.36;100.00
60355;BME280;46198;51.464;-0.066;2023-02-19T04:57:46;102392.53;;;8.41;100.00
60355;BME280;46198;51.464;-0.066;2023-02-19T05:00:14;102408.75;;;8.41;100.00
60355;BME280;46198;51.464;-0.066;2023-02-19T05:02:42;102411.09;;;8.36;100.00
60355;BME280;46198;51.464;-0.066;2023-02-19T05:05:10;102410.44;;;8.42;100.00
60355;BME280;46198;51.464;-0.066;2023-02-19T05:07:38;102410.91;;;8.38;100.00
60355;BME280;46198;51.464;-0.066;2023-02-19T05:10:07;102421.03;;;8.36;100.00
60355;BME280;46198;51.464;-0.066;2023-02-19T05:12:36;102429.72;;;8.39;100.00
60355;BME280;46198;51.464;-0.066;2023-02-19T05:15:04;102419.53;;;8.33;100.00
60355;BME280;46198;51.464;-0.066;2023-02-19T05:17:36;102412.41;;;8.32;100.00
60355;BME280;46198;51.464;-0.066;2023-02-19T05:20:04;102413.09;;;8.34;100.00
60355;BME280;46198;51.464;-0.066;2023-02-19T05:22:32;102421.72;;;8.30;100.00
60355;BME280;46198;51.464;-0.066;2023-02-19T05:25:00;102424.59;;;8.28;100.00
60355;BME280;46198;51.464;-0.066;2023-02-19T05:27:29;102421.22;;;8.26;100.00
60355;BME280;46198;51.464;-0.066;2023-02-19T05:29:59;102437.09;;;8.21;100.00
60355;BME280;46198;51.464;-0.066;2023-02-19T05:32:27;102444.19;;;8.22;100.00
60355;BME280;46198;51.464;-0.066;2023-02-19T05:34:55;102442.50;;;8.21;100.00
60355;BME280;46198;51.464;-0.066;2023-02-19T05:37:23;102438.41;;;8.17;100.00
60355;BME280;46198;51.464;-0.066;2023-02-19T05:39:51;102435.91;;;8.15;100.00
60355;BME280;46198;51.464;-0.066;2023-02-19T05:42:19;102437.09;;;8.21;100.00
60355;BME280;46198;51.464;-0.066;2023-02-19T05:44:47;102433.69;;;8.19;100.00
60355;BME280;46198;51.464;-0.066;2023-02-19T05:47:17;102435.91;;;8.15;100.00
60355;BME280;46198;51.464;-0.066;2023-02-19T05:49:45;102434.72;;;8.18;100.00
60355;BME280;46198;51.464;-0.066;2023-02-19T05:52:13;102444.47;;;8.03;100.00
60355;BME280;46198;51.464;-0.066;2023-02-19T05:54:41;102449.22;;;8.09;100.00
60355;BME280;46198;51.464;-0.066;2023-02-19T05:57:09;102447.38;;;8.09;100.00
60355;BME280;46198;51.464;-0.066;2023-02-19T05:59:37;102437.72;;;8.07;100.00
60355;BME280;46198;51.464;-0.066;2023-02-19T06:02:05;102435.53;;;8.10;100.00
60355;BME280;46198;51.464;-0.066;2023-02-19T06:04:36;102431.63;;;8.05;100.00
60355;BME280;46198;51.464;-0.066;2023-02-19T06:07:04;102438.56;;;8.07;100.00
60355;BME280;46198;51.464;-0.066;2023-02-19T06:09:32;102444.50;;;8.11;100.00
60355;BME280;46198;51.464;-0.066;2023-02-19T06:12:00;102439.06;;;8.03;100.00
60355;BME280;46198;51.464;-0.066;2023-02-19T06:14:28;102440.75;;;8.04;100.00
60355;BME280;46198;51.464;-0.066;2023-02-19T06:16:56;102445.16;;;8.05;100.00
60355;BME280;46198;51.464;-0.066;2023-02-19T06:19:24;102447.53;;;8.08;100.00
60355;BME280;46198;51.464;-0.066;2023-02-19T06:21:54;102453.41;;;8.03;100.00
60355;BME280;46198;51.464;-0.066;2023-02-19T06:24:22;102459.34;;;7.98;100.00
60355;BME280;46198;51.464;-0.066;2023-02-19T06:26:50;102462.03;;;7.98;100.00
60355;BME280;46198;51.464;-0.066;2023-02-19T06:29:18;102467.13;;;8.02;100.00
60355;BME280;46198;51.464;-0.066;2023-02-19T06:31:46;102467.78;;;7.95;100.00
60355;BME280;46198;51.464;-0.066;2023-02-19T06:34:14;102469.84;;;8.02;100.00
60355;BME280;46198;51.464;-0.066;2023-02-19T06:36:42;102467.25;;;7.92;100.00
60355;BME280;46198;51.464;-0.066;2023-02-19T06:39:11;102455.59;;;7.91;100.00
60355;BME280;46198;51.464;-0.066;2023-02-19T06:41:39;102463.88;;;7.90;100.00
60355;BME280;46198;51.464;-0.066;2023-02-19T06:44:07;102471.28;;;7.88;100.00
60355;BME280;46198;51.464;-0.066;2023-02-19T06:46:35;102476.16;;;7.84;100.00
60355;BME280;46198;51.464;-0.066;2023-02-19T06:49:04;102475.50;;;7.82;100.00
60355;BME280;46198;51.464;-0.066;2023-02-19T06:51:32;102484.22;;;7.76;100.00
60355;BME280;46198;51.464;-0.066;2023-02-19T06:54:01;102483.06;;;7.78;100.00
60355;BME280;46198;51.464;-0.066;2023-02-19T06:56:31;102505.56;;;7.79;100.00
60355;BME280;46198;51.464;-0.066;2023-02-19T06:59:00;102497.22;;;7.72;100.00
60355;BME280;46198;51.464;-0.066;2023-02-19T07:01:30;102493.50;;;7.73;100.00
60355;BME280;46198;51.464;-0.066;2023-02-19T07:03:58;102498.25;;;7.71;100.00
60355;BME280;46198;51.464;-0.066;2023-02-19T07:06:27;102501.63;;;7.73;100.00
60355;BME280;46198;51.464;-0.066;2023-02-19T07:08:56;102510.06;;;7.70;100.00
60355;BME280;46198;51.464;-0.066;2023-02-19T07:11:25;102499.41;;;7.69;100.00
60355;BME280;46198;51.464;-0.066;2023-02-19T07:13:58;102516.81;;;7.66;100.00
60355;BME280;46198;51.464;-0.066;2023-02-19T07:16:26;102518.28;;;7.61;100.00
60355;BME280;46198;51.464;-0.066;2023-02-19T07:18:55;102515.41;;;7.62;100.00
60355;BME280;46198;51.464;-0.066;2023-02-19T07:21:24;102535.22;;;7.63;100.00
60355;BME280;46198;51.464;-0.066;2023-02-19T07:23:53;102537.91;;;7.63;100.00
60355;BME280;46198;51.464;-0.066;2023-02-19T07:26:21;102539.91;;;7.61;100.00
60355;BME280;46198;51.464;-0.066;2023-02-19T07:28:50;102529.94;;;7.61;100.00
60355;BME280;46198;51.464;-0.066;2023-02-19T07:31:22;102532.31;;;7.64;100.00
60355;BME280;46198;51.464;-0.066;2023-02-19T07:33:51;102541.59;;;7.62;100.00
60355;BME280;46198;51.464;-0.066;2023-02-19T07:36:20;102554.97;;;7.63;100.00
60355;BME280;46198;51.464;-0.066;2023-02-19T07:38:52;102569.47;;;7.62;100.00
60355;BME280;46198;51.464;-0.066;2023-02-19T07:41:22;102564.31;;;7.69;100.00
60355;BME280;46198;51.464;-0.066;2023-02-19T07:43:50;102556.91;;;7.71;100.00
60355;BME280;46198;51.464;-0.066;2023-02-19T07:46:21;102550.63;;;7.70;100.00
60355;BME280;46198;51.464;-0.066;2023-02-19T07:48:49;102550.28;;;7.73;100.00
60355;BME280;46198;51.464;-0.066;2023-02-19T07:51:18;102563.53;;;7.76;100.00
60355;BME280;46198;51.464;-0.066;2023-02-19T07:53:47;102585.31;;;7.75;100.00
60355;BME280;46198;51.464;-0.066;2023-02-19T07:56:17;102592.38;;;7.76;100.00
60355;BME280;46198;51.464;-0.066;2023-02-19T07:58:46;102583.06;;;7.70;100.00
60355;BME280;46198;51.464;-0.066;2023-02-19T08:01:15;102579.88;;;7.75;100.00
60355;BME280;46198;51.464;-0.066;2023-02-19T08:03:45;102591.41;;;7.77;100.00
60355;BME280;46198;51.464;-0.066;2023-02-19T08:06:15;102577.38;;;7.82;100.00
60355;BME280;46198;51.464;-0.066;2023-02-19T08:08:43;102583.03;;;7.88;100.00
60355;BME280;46198;51.464;-0.066;2023-02-19T08:11:11;102600.88;;;7.81;100.00
60355;BME280;46198;51.464;-0.066;2023-02-19T08:13:56;102596.69;;;7.87;100.00
60355;BME280;46198;51.464;-0.066;2023-02-19T08:16:24;102607.88;;;7.92;100.00
60355;BME280;46198;51.464;-0.066;2023-02-19T08:19:09;102604.00;;;7.94;100.00
60355;BME280;46198;51.464;-0.066;2023-02-19T08:21:37;102610.13;;;7.96;100.00
60355;BME280;46198;51.464;-0.066;2023-02-19T08:24:05;102629.38;;;7.93;100.00
60355;BME280;46198;51.464;-0.066;2023-02-19T08:26:34;102642.25;;;7.99;100.00
60355;BME280;46198;51.464;-0.066;2023-02-19T08:29:02;102663.59;;;8.03;100.00
60355;BME280;46198;51.464;-0.066;2023-02-19T08:31:32;102661.25;;;8.08;100.00
60355;BME280;46198;51.464;-0.066;2023-02-19T08:34:00;102662.09;;;8.08;100.00
60355;BME280;46198;51.464;-0.066;2023-02-19T08:36:30;102658.94;;;8.13;100.00
60355;BME280;46198;51.464;-0.066;2023-02-19T08:38:58;102659.25;;;8.10;100.00
60355;BME280;46198;51.464;-0.066;2023-02-19T08:41:26;102648.63;;;8.16;100.00
60355;BME280;46198;51.464;-0.066;2023-02-19T08:43:54;102647.03;;;8.06;100.00
60355;BME280;46198;51.464;-0.066;2023-02-19T08:46:22;102660.28;;;8.17;100.00
60355;BME280;46198;51.464;-0.066;2023-02-19T08:48:50;102661.31;;;8.16;100.00
60355;BME280;46198;51.464;-0.066;2023-02-19T08:51:18;102659.69;;;8.23;100.00
60355;BME280;46198;51.464;-0.066;2023-02-19T08:53:48;102657.97;;;8.22;100.00
60355;BME280;46198;51.464;-0.066;2023-02-19T08:56:16;102654.47;;;8.30;100.00
60355;BME280;46198;51.464;-0.066;2023-02-19T08:58:44;102645.34;;;8.31;100.00
60355;BME280;46198;51.464;-0.066;2023-02-19T09:01:14;102640.13;;;8.37;100.00
60355;BME280;46198;51.464;-0.066;2023-02-19T09:04:10;102635.88;;;8.35;100.00
60355;BME280;46198;51.464;-0.066;2023-02-19T09:06:38;102634.41;;;8.40;100.00
60355;BME280;46198;51.464;-0.066;2023-02-19T09:09:08;102640.13;;;8.37;100.00
60355;BME280;46198;51.464;-0.066;2023-02-19T09:11:37;102648.97;;;8.39;100.00
60355;BME280;46198;51.464;-0.066;2023-02-19T09:14:05;102669.47;;;8.42;100.00
60355;BME280;46198;51.464;-0.066;2023-02-19T09:16:34;102667.66;;;8.51;100.00
60355;BME280;46198;51.464;-0.066;2023-02-19T09:19:02;102671.00;;;8.45;100.00
60355;BME280;46198;51.464;-0.066;2023-02-19T09:21:30;102680.72;;;8.55;100.00
60355;BME280;46198;51.464;-0.066;2023-02-19T09:23:58;102687.34;;;8.61;100.00
60355;BME280;46198;51.464;-0.066;2023-02-19T09:26:27;102686.50;;;8.60;100.00
60355;BME280;46198;51.464;-0.066;2023-02-19T09:28:55;102692.63;;;8.71;100.00
60355;BME280;46198;51.464;-0.066;2023-02-19T09:31:23;102687.22;;;8.79;100.00
60355;BME280;46198;51.464;-0.066;2023-02-19T09:33:52;102691.28;;;8.75;100.00
60355;BME280;46198;51.464;-0.066;2023-02-19T09:36:20;102683.31;;;8.73;100.00
60355;BME280;46198;51.464;-0.066;2023-02-19T09:38:48;102687.78;;;8.82;100.00
60355;BME280;46198;51.464;-0.066;2023-02-19T09:41:22;102717.63;;;8.91;100.00
60355;BME280;46198;51.464;-0.066;2023-02-19T09:43:53;102734.34;;;8.86;100.00
60355;BME280;46198;51.464;-0.066;2023-02-19T09:46:26;102720.19;;;9.00;100.00
60355;BME280;46198;51.464;-0.066;2023-02-19T09:49:02;102722.41;;;9.05;100.00
60355;BME280;46198;51.464;-0.066;2023-02-19T09:51:31;102718.72;;;9.22;100.00
60355;BME280;46198;51.464;-0.066;2023-02-19T09:54:03;102732.47;;;9.29;100.00
60355;BME280;46198;51.464;-0.066;2023-02-19T09:56:33;102740.47;;;9.39;100.00
60355;BME280;46198;51.464;-0.066;2023-02-19T09:59:03;102754.91;;;9.47;100.00
60355;BME280;46198;51.464;-0.066;2023-02-19T10:01:33;102751.53;;;9.62;100.00
60355;BME280;46198;51.464;-0.066;2023-02-19T10:04:04;102742.56;;;9.69;100.00
60355;BME280;46198;51.464;-0.066;2023-02-19T10:06:32;102732.06;;;9.66;100.00
60355;BME280;46198;51.464;-0.066;2023-02-19T10:09:12;102737.31;;;9.76;100.00
60355;BME280;46198;51.464;-0.066;2023-02-19T10:11:44;102737.00;;;9.95;100.00
60355;BME280;46198;51.464;-0.066;2023-02-19T10:14:18;102730.22;;;9.99;100.00
60355;BME280;46198;51.464;-0.066;2023-02-19T10:16:48;102740.88;;;9.85;100.00
60355;BME280;46198;51.464;-0.066;2023-02-19T10:19:17;102737.53;;;10.07;100.00
60355;BME280;46198;51.464;-0.066;2023-02-19T10:21:45;102731.41;;;10.21;100.00
60355;BME280;46198;51.464;-0.066;2023-02-19T10:24:19;102726.00;;;10.30;100.00
60355;BME280;46198;51.464;-0.066;2023-02-19T10:26:48;102724.59;;;10.42;100.00
60355;BME280;46198;51.464;-0.066;2023-02-19T10:29:18;102732.06;;;10.56;100.00
60355;BME280;46198;51.464;-0.066;2023-02-19T10:31:47;102733.91;;;10.64;100.00
60355;BME280;46198;51.464;-0.066;2023-02-19T10:34:21;102734.91;;;10.71;100.00
60355;BME280;46198;51.464;-0.066;2023-02-19T10:36:50;102735.69;;;10.88;100.00
60355;BME280;46198;51.464;-0.066;2023-02-19T10:39:38;102743.97;;;11.03;100.00
60355;BME280;46198;51.464;-0.066;2023-02-19T10:42:16;102747.56;;;10.95;100.00
60355;BME280;46198;51.464;-0.066;2023-02-19T10:44:48;102733.09;;;11.03;100.00
60355;BME280;46198;51.464;-0.066;2023-02-19T10:47:20;102745.38;;;11.30;100.00
60355;BME280;46198;51.464;-0.066;2023-02-19T10:49:50;102743.94;;;11.42;100.00
60355;BME280;46198;51.464;-0.066;2023-02-19T10:52:20;102745.72;;;11.27;100.00
60355;BME280;46198;51.464;-0.066;2023-02-19T10:54:51;102745.75;;;11.50;100.00
60355;BME280;46198;51.464;-0.066;2023-02-19T10:57:26;102741.13;;;11.59;100.00
60355;BME280;46198;51.464;-0.066;2023-02-19T11:00:01;102748.31;;;11.74;100.00
60355;BME280;46198;51.464;-0.066;2023-02-19T11:02:31;102745.44;;;11.76;100.00
60355;BME280;46198;51.464;-0.066;2023-02-19T11:05:05;102754.25;;;11.86;100.00
60355;BME280;46198;51.464;-0.066;2023-02-19T11:07:35;102749.97;;;11.84;100.00
60355;BME280;46198;51.464;-0.066;2023-02-19T11:10:04;102755.59;;;11.82;100.00
60355;BME280;46198;51.464;-0.066;2023-02-19T11:12:34;102763.19;;;11.64;100.00
60355;BME280;46198;51.464;-0.066;2023-02-19T11:15:18;102763.69;;;11.67;100.00
60355;BME280;46198;51.464;-0.066;2023-02-19T11:17:53;102756.28;;;11.53;100.00
60355;BME280;46198;51.464;-0.066;2023-02-19T11:20:22;102759.09;;;11.68;100.00
60355;BME280;46198;51.464;-0.066;2023-02-19T11:22:50;102756.22;;;11.61;100.00
60355;BME280;46198;51.464;-0.066;2023-02-19T11:25:20;102757.63;;;11.57;100.00
60355;BME280;46198;51.464;-0.066;2023-02-19T11:28:02;102753.41;;;11.54;100.00
60355;BME280;46198;51.464;-0.066;2023-02-19T11:30:41;102761.16;;;11.66;100.00
60355;BME280;46198;51.464;-0.066;2023-02-19T11:33:20;102763.28;;;11.47;100.00
60355;BME280;46198;51.464;-0.066;2023-02-19T11:35:50;102767.56;;;11.73;100.00
60355;BME280;46198;51.464;-0.066;2023-02-19T11:38:20;102763.88;;;11.66;99.78
60355;BME280;46198;51.464;-0.066;2023-02-19T11:40:53;102770.44;;;11.48;100.00
60355;BME280;46198;51.464;-0.066;2023-02-19T11:43:31;102772.72;;;11.68;100.00
60355;BME280;46198;51.464;-0.066;2023-02-19T11:46:06;102775.78;;;11.65;100.00
60355;BME280;46198;51.464;-0.066;2023-02-19T11:48:51;102762.03;;;11.89;100.00
60355;BME280;46198;51.464;-0.066;2023-02-19T11:51:33;102753.22;;;11.87;99.24
60355;BME280;46198;51.464;-0.066;2023-02-19T11:54:25;102751.03;;;11.51;97.42
60355;BME280;46198;51.464;-0.066;2023-02-19T11:57:02;102745.44;;;11.76;96.78
60355;BME280;46198;51.464;-0.066;2023-02-19T11:59:39;102737.91;;;11.86;100.00
60355;BME280;46198;51.464;-0.066;2023-02-19T12:02:36;102724.16;;;12.03;96.25
60355;BME280;46198;51.464;-0.066;2023-02-19T12:08:38;102727.59;;;12.19;86.69
60355;BME280;46198;51.464;-0.066;2023-02-19T12:11:17;102732.59;;;12.31;81.00
60355;BME280;46198;51.464;-0.066;2023-02-19T12:13:59;102729.41;;;12.42;78.02
60355;BME280;46198;51.464;-0.066;2023-02-19T12:16:35;102713.47;;;12.69;76.72
60355;BME280;46198;51.464;-0.066;2023-02-19T12:19:19;102720.69;;;12.47;75.48
60355;BME280;46198;51.464;-0.066;2023-02-19T12:22:07;102714.72;;;12.28;76.78
60355;BME280;46198;51.464;-0.066;2023-02-19T12:24:52;102716.78;;;12.11;78.61
60355;BME280;46198;51.464;-0.066;2023-02-19T12:27:36;102718.13;;;12.45;74.26
60355;BME280;46198;51.464;-0.066;2023-02-19T12:30:29;102702.44;;;12.62;76.21
60355;BME280;46198;51.464;-0.066;2023-02-19T12:33:27;102696.53;;;12.58;74.04
60355;BME280;46198;51.464;-0.066;2023-02-19T12:36:08;102698.25;;;12.59;77.52
60355;BME280;46198;51.464;-0.066;2023-02-19T12:38:42;102694.75;;;12.80;75.39
60355;BME280;46198;51.464;-0.066;2023-02-19T12:41:19;102698.59;;;12.86;75.47
60355;BME280;46198;51.464;-0.066;2023-02-19T12:43:56;102705.44;;;12.97;74.75
60355;BME280;46198;51.464;-0.066;2023-02-19T12:46:30;102702.56;;;12.69;77.01
60355;BME280;46198;51.464;-0.066;2023-02-19T12:49:04;102704.06;;;12.71;76.14
60355;BME280;46198;51.464;-0.066;2023-02-19T12:51:41;102704.16;;;12.63;77.12
60355;BME280;46198;51.464;-0.066;2023-02-19T12:54:15;102714.22;;;12.62;75.71
60355;BME280;46198;51.464;-0.066;2023-02-19T12:56:47;102720.03;;;12.45;75.44
60355;BME280;46198;51.464;-0.066;2023-02-19T12:59:21;102715.44;;;12.90;75.12
60355;BME280;46198;51.464;-0.066;2023-02-19T13:01:55;102697.94;;;12.99;78.74
60355;BME280;46198;51.464;-0.066;2023-02-19T13:04:29;102701.59;;;12.91;78.01
60355;BME280;46198;51.464;-0.066;2023-02-19T13:07:05;102708.41;;;13.32;77.06